createdAt,value
2023-01-28T00:01:55.356Z,93.20
2023-01-28T00:04:22.293Z,93.38
2023-01-28T00:06:49.117Z,93.31
2023-01-28T00:09:16.013Z,93.43
2023-01-28T00:11:42.765Z,93.58
2023-01-28T00:14:12.498Z,93.89
2023-01-28T00:16:39.765Z,93.90
2023-01-28T00:19:06.580Z,93.59
2023-01-28T00:21:33.466Z,93.84
2023-01-28T00:24:00.465Z,93.49
2023-01-28T00:26:27.497Z,93.84
2023-01-28T00:28:54.725Z,93.83
2023-01-28T00:31:25.346Z,94.10
2023-01-28T00:33:53.343Z,94.08
2023-01-28T00:36:22.947Z,94.23
2023-01-28T00:38:56.121Z,93.71
2023-01-28T00:41:25.964Z,94.17
2023-01-28T00:43:53.677Z,94.31
2023-01-28T00:46:22.979Z,94.54
2023-01-28T00:48:50.039Z,94.33
2023-01-28T00:51:20.368Z,94.42
2023-01-28T00:53:47.586Z,94.46
2023-01-28T00:56:17.926Z,94.25
2023-01-28T00:58:45.079Z,94.45
2023-01-28T01:01:18.729Z,94.42
2023-01-28T01:03:46.612Z,94.48
2023-01-28T01:06:15.860Z,94.16
2023-01-28T01:08:50.599Z,94.27
2023-01-28T01:11:18.328Z,94.71
2023-01-28T01:13:45.091Z,94.40
2023-01-28T01:16:16.751Z,94.18
2023-01-28T01:18:43.926Z,94.39
2023-01-28T01:21:21.541Z,94.17
2023-01-28T01:23:48.873Z,94.51
2023-01-28T01:26:16.180Z,94.71
2023-01-28T01:28:43.238Z,94.34
2023-01-28T01:31:18.313Z,94.79
2023-01-28T01:33:48.670Z,94.56
2023-01-28T01:36:18.641Z,94.49
2023-01-28T01:38:45.509Z,94.83
2023-01-28T01:41:30.272Z,94.59
2023-01-28T01:44:04.076Z,94.74
2023-01-28T01:46:49.565Z,94.63
2023-01-28T01:49:23.713Z,94.51
2023-01-28T01:52:16.595Z,94.53
2023-01-28T01:54:47.672Z,94.34
2023-01-28T01:57:23.424Z,94.48
2023-01-28T01:59:51.212Z,94.18
2023-01-28T02:02:18.272Z,94.20
2023-01-28T02:04:45.866Z,94.32
2023-01-28T02:07:16.629Z,94.29
2023-01-28T02:09:43.465Z,94.16
2023-01-28T02:12:20.953Z,94.12
2023-01-28T02:15:03.624Z,93.52
2023-01-28T02:17:31.627Z,93.32
2023-01-28T02:20:05.271Z,93.63
2023-01-28T02:22:56.164Z,93.64
2023-01-28T02:25:41.331Z,93.91
2023-01-28T02:28:26.023Z,93.78
2023-01-28T02:31:25.073Z,93.79
2023-01-28T02:34:16.680Z,93.75
2023-01-28T02:36:55.520Z,93.71
2023-01-28T02:39:32.091Z,93.89
2023-01-28T02:42:16.519Z,93.70
2023-01-28T02:44:43.705Z,93.85
2023-01-28T02:47:31.715Z,93.85
2023-01-28T02:50:03.828Z,93.78
2023-01-28T02:53:13.717Z,93.61
2023-01-28T02:56:09.761Z,93.64
2023-01-28T02:58:48.318Z,93.62
2023-01-28T03:01:43.310Z,93.67
2023-01-28T03:04:21.905Z,93.63
2023-01-28T03:06:53.711Z,93.67
2023-01-28T03:09:24.482Z,93.67
2023-01-28T03:12:20.876Z,93.67
2023-01-28T03:15:14.939Z,93.47
2023-01-28T03:18:35.751Z,93.53
2023-01-28T03:21:41.585Z,93.49
2023-01-28T03:24:40.658Z,93.35
2023-01-28T03:27:38.648Z,93.52
2023-01-28T03:30:36.078Z,93.43
2023-01-28T03:33:24.096Z,93.49
2023-01-28T03:36:09.378Z,93.59
2023-01-28T03:38:42.555Z,93.43
2023-01-28T03:41:12.752Z,93.30
2023-01-28T03:43:39.890Z,93.42
2023-01-28T03:46:06.841Z,93.45
2023-01-28T03:48:33.691Z,93.55
2023-01-28T03:51:00.618Z,93.39
2023-01-28T03:53:28.368Z,93.41
2023-01-28T03:55:56.848Z,93.51
2023-01-28T03:58:27.623Z,93.49
2023-01-28T04:00:54.555Z,93.54
2023-01-28T04:03:22.479Z,93.35
2023-01-28T04:06:02.473Z,93.48
2023-01-28T04:08:29.710Z,93.44
2023-01-28T04:10:56.793Z,93.42
2023-01-28T04:13:23.974Z,93.25
2023-01-28T04:15:51.595Z,92.65
2023-01-28T04:18:19.735Z,92.33
2023-01-28T04:20:49.251Z,92.10
2023-01-28T04:23:16.196Z,92.58
2023-01-28T04:25:42.941Z,92.44
2023-01-28T04:28:09.885Z,92.42
2023-01-28T04:30:36.702Z,92.31
2023-01-28T04:33:03.511Z,92.50
2023-01-28T04:35:30.443Z,92.32
2023-01-28T04:37:57.202Z,92.31
2023-01-28T04:40:23.966Z,92.22
2023-01-28T04:42:55.427Z,92.12
2023-01-28T04:45:23.135Z,91.99
2023-01-28T04:47:50.358Z,91.64
2023-01-28T04:50:17.337Z,91.80
2023-01-28T04:52:44.488Z,91.95
2023-01-28T04:55:11.834Z,91.94
2023-01-28T04:57:38.943Z,92.08
2023-01-28T05:00:06.619Z,91.94
2023-01-28T05:02:33.438Z,91.67
2023-01-28T05:05:01.740Z,91.77
2023-01-28T05:07:28.620Z,91.94
2023-01-28T05:09:55.381Z,91.96
2023-01-28T05:12:22.382Z,92.27
2023-01-28T05:14:49.130Z,92.13
2023-01-28T05:17:16.124Z,91.92
2023-01-28T05:19:43.754Z,92.08
2023-01-28T05:22:10.536Z,92.06
2023-01-28T05:24:37.381Z,91.84
2023-01-28T05:27:04.388Z,92.22
2023-01-28T05:29:31.425Z,92.22
2023-01-28T05:31:58.265Z,92.15
2023-01-28T05:34:25.343Z,92.40
2023-01-28T05:36:52.442Z,92.57
2023-01-28T05:39:19.531Z,92.81
2023-01-28T05:41:46.335Z,92.96
2023-01-28T05:44:13.112Z,93.22
2023-01-28T05:46:45.447Z,92.98
2023-01-28T05:49:13.742Z,92.79
2023-01-28T05:51:41.378Z,92.77
2023-01-28T05:54:09.245Z,93.03
2023-01-28T05:56:36.794Z,93.18
2023-01-28T05:59:05.545Z,93.28
2023-01-28T06:01:32.746Z,93.26
2023-01-28T06:04:00.628Z,93.31
2023-01-28T06:06:27.452Z,93.37
2023-01-28T06:08:54.316Z,93.11
2023-01-28T06:11:21.268Z,93.12
2023-01-28T06:13:48.443Z,93.55
2023-01-28T06:16:15.451Z,93.53
2023-01-28T06:18:42.575Z,93.46
2023-01-28T06:21:09.363Z,93.69
2023-01-28T06:23:36.241Z,93.76
2023-01-28T06:26:03.438Z,93.78
2023-01-28T06:28:30.244Z,93.82
2023-01-28T06:30:57.103Z,94.23
2023-01-28T06:33:24.603Z,94.26
2023-01-28T06:35:51.549Z,94.80
2023-01-28T06:38:18.714Z,94.95
2023-01-28T06:40:45.493Z,94.80
2023-01-28T06:43:12.283Z,94.66
2023-01-28T06:45:39.213Z,94.87
2023-01-28T06:48:08.773Z,94.69
2023-01-28T06:50:35.704Z,94.88
2023-01-28T06:53:02.480Z,95.11
2023-01-28T06:55:29.245Z,94.89
2023-01-28T06:57:56.233Z,94.68
2023-01-28T07:00:23.229Z,94.64
2023-01-28T07:02:50.036Z,94.84
2023-01-28T07:05:17.308Z,94.94
2023-01-28T07:07:44.912Z,94.94
2023-01-28T07:10:11.973Z,94.92
2023-01-28T07:12:39.281Z,95.05
2023-01-28T07:15:07.182Z,95.10
2023-01-28T07:17:34.045Z,95.03
2023-01-28T07:20:00.856Z,94.80
2023-01-28T07:22:27.819Z,95.08
2023-01-28T07:24:54.656Z,95.02
2023-01-28T07:27:21.432Z,95.28
2023-01-28T07:29:48.181Z,95.49
2023-01-28T07:32:14.959Z,95.57
2023-01-28T07:34:43.263Z,95.75
2023-01-28T07:37:10.751Z,95.65
2023-01-28T07:39:37.551Z,95.79
2023-01-28T07:42:04.694Z,95.80
2023-01-28T07:44:31.486Z,95.93
2023-01-28T07:46:58.275Z,95.97
2023-01-28T07:49:25.367Z,96.36
2023-01-28T07:51:52.780Z,96.12
2023-01-28T07:54:19.818Z,96.00
2023-01-28T07:56:46.992Z,96.06
2023-01-28T07:59:13.783Z,96.69
2023-01-28T08:01:40.985Z,96.71
2023-01-28T08:04:07.887Z,96.36
2023-01-28T08:06:38.014Z,96.29
2023-01-28T08:09:09.041Z,96.44
2023-01-28T08:11:39.553Z,96.38
2023-01-28T08:14:06.850Z,96.57
2023-01-28T08:16:33.655Z,96.62
2023-01-28T08:19:00.433Z,96.78
2023-01-28T08:21:27.400Z,97.14
2023-01-28T08:23:55.017Z,97.03
2023-01-28T08:26:21.881Z,97.01
2023-01-28T08:28:50.617Z,97.26
2023-01-28T08:31:19.092Z,97.01
2023-01-28T08:33:45.993Z,97.11
2023-01-28T08:36:13.029Z,97.15
2023-01-28T08:38:39.824Z,96.92
2023-01-28T08:41:06.811Z,96.89
2023-01-28T08:43:33.712Z,96.87
2023-01-28T08:46:00.604Z,96.97
2023-01-28T08:48:27.528Z,96.85
2023-01-28T08:50:58.734Z,97.16
2023-01-28T08:53:25.704Z,97.25
2023-01-28T08:55:54.895Z,97.14
2023-01-28T08:58:22.050Z,97.17
2023-01-28T09:00:50.356Z,96.89
2023-01-28T09:03:18.232Z,97.07
2023-01-28T09:05:45.091Z,97.29
2023-01-28T09:08:15.335Z,97.24
2023-01-28T09:10:42.826Z,97.52
2023-01-28T09:13:15.693Z,97.35
2023-01-28T09:15:43.571Z,97.66
2023-01-28T09:18:10.663Z,97.31
2023-01-28T09:20:38.539Z,97.59
2023-01-28T09:23:05.469Z,97.46
2023-01-28T09:25:32.343Z,97.65
2023-01-28T09:27:59.509Z,97.65
2023-01-28T09:30:27.114Z,97.67
2023-01-28T09:32:56.728Z,97.68
2023-01-28T09:35:23.492Z,97.69
2023-01-28T09:37:52.086Z,97.67
2023-01-28T09:40:34.290Z,97.60
2023-01-28T09:43:29.284Z,97.68
2023-01-28T09:45:59.479Z,97.54
2023-01-28T09:48:38.278Z,97.83
2023-01-28T09:51:13.652Z,97.39
2023-01-28T09:53:47.310Z,97.30
2023-01-28T09:56:36.577Z,97.42
2023-01-28T09:59:36.183Z,97.63
2023-01-28T10:02:24.176Z,97.61
2023-01-28T10:04:59.524Z,97.59
2023-01-28T10:07:39.227Z,97.13
2023-01-28T10:10:45.925Z,97.52
2023-01-28T10:13:43.780Z,97.26
2023-01-28T10:16:23.986Z,97.17
2023-01-28T10:19:11.504Z,97.18
2023-01-28T10:22:13.100Z,97.12
2023-01-28T10:24:53.052Z,96.97
2023-01-28T10:27:24.389Z,96.77
2023-01-28T10:29:53.372Z,96.83
2023-01-28T10:32:27.099Z,96.59
2023-01-28T10:34:54.029Z,96.69
2023-01-28T10:37:21.705Z,96.32
2023-01-28T10:39:48.789Z,96.88
2023-01-28T10:42:31.949Z,96.78
2023-01-28T10:45:08.789Z,96.81
2023-01-28T10:47:45.317Z,96.81
2023-01-28T10:50:25.266Z,96.95
2023-01-28T10:53:01.419Z,96.74
2023-01-28T10:55:47.659Z,97.16
2023-01-28T10:58:24.460Z,97.22
2023-01-28T11:01:00.328Z,97.22
2023-01-28T11:03:28.056Z,96.82
2023-01-28T11:05:57.085Z,96.71
2023-01-28T11:08:27.988Z,96.35
2023-01-28T11:10:56.723Z,96.56
2023-01-28T11:13:29.820Z,96.51
2023-01-28T11:16:06.911Z,95.41
2023-01-28T11:18:46.625Z,95.56
2023-01-28T11:21:33.138Z,95.27
2023-01-28T11:24:05.131Z,95.10
2023-01-28T11:26:37.520Z,94.97
2023-01-28T11:29:05.268Z,95.18
2023-01-28T11:31:44.396Z,95.11
2023-01-28T11:34:19.241Z,95.11
2023-01-28T11:37:06.005Z,94.70
2023-01-28T11:39:32.869Z,95.31
2023-01-28T11:42:22.829Z,95.32
2023-01-28T11:44:50.343Z,95.49
2023-01-28T11:47:35.430Z,95.42
2023-01-28T11:50:39.386Z,95.41
2023-01-28T11:53:32.772Z,95.54
2023-01-28T11:56:25.597Z,95.44
2023-01-28T11:59:13.804Z,95.61
2023-01-28T12:01:57.795Z,95.97
2023-01-28T12:05:01.414Z,95.57
2023-01-28T12:07:52.433Z,95.77
2023-01-28T12:10:36.800Z,95.73
2023-01-28T12:13:21.836Z,95.75
2023-01-28T12:16:18.932Z,95.85
2023-01-28T12:19:43.204Z,95.49
2023-01-28T12:22:35.425Z,95.84
2023-01-28T12:25:23.528Z,95.18
2023-01-28T12:27:56.049Z,95.85
2023-01-28T12:31:02.233Z,95.76
2023-01-28T12:33:31.684Z,95.70
2023-01-28T12:36:26.184Z,95.80
2023-01-28T12:39:16.592Z,96.17
2023-01-28T12:41:54.428Z,96.34
2023-01-28T12:44:35.359Z,95.84
2023-01-28T12:47:17.077Z,95.83
2023-01-28T12:50:12.418Z,95.43
2023-01-28T12:52:56.153Z,95.58
2023-01-28T12:55:44.557Z,95.38
2023-01-28T12:58:45.737Z,95.48
2023-01-28T13:01:21.080Z,94.96
2023-01-28T13:04:35.062Z,94.25
2023-01-28T13:07:15.965Z,95.11
2023-01-28T13:09:53.740Z,95.03
2023-01-28T13:12:22.337Z,95.46
2023-01-28T13:14:53.228Z,95.48
2023-01-28T13:17:32.723Z,95.90
2023-01-28T13:20:00.347Z,95.88
2023-01-28T13:22:36.825Z,95.99
2023-01-28T13:25:36.369Z,95.85
2023-01-28T13:28:07.034Z,96.45
2023-01-28T13:30:47.824Z,96.42
2023-01-28T13:33:32.284Z,96.13
2023-01-28T13:36:25.195Z,95.93
2023-01-28T13:39:14.502Z,95.94
2023-01-28T13:41:47.832Z,96.20
2023-01-28T13:44:34.396Z,96.63
2023-01-28T13:47:39.844Z,96.13
2023-01-28T13:50:16.240Z,96.44
2023-01-28T13:52:56.735Z,96.65
2023-01-28T13:55:43.508Z,96.68
2023-01-28T13:58:58.476Z,96.75
2023-01-28T14:01:43.472Z,96.98
2023-01-28T14:04:59.721Z,97.19
2023-01-28T14:08:06.267Z,97.08
2023-01-28T14:10:56.877Z,96.95
2023-01-28T14:13:56.813Z,97.00
2023-01-28T14:17:10.091Z,97.41
2023-01-28T14:19:38.739Z,97.41
2023-01-28T14:22:10.729Z,97.45
2023-01-28T14:24:39.822Z,97.61
2023-01-28T14:27:36.073Z,97.87
2023-01-28T14:30:16.917Z,97.71
2023-01-28T14:32:50.616Z,97.70
2023-01-28T14:35:32.113Z,97.97
2023-01-28T14:38:00.935Z,97.97
2023-01-28T14:40:29.592Z,98.04
2023-01-28T14:42:56.616Z,98.21
2023-01-28T14:45:42.814Z,97.65
2023-01-28T14:48:23.340Z,97.50
2023-01-28T14:51:16.569Z,97.63
2023-01-28T14:54:27.096Z,97.50
2023-01-28T14:57:19.607Z,97.54
2023-01-28T14:59:54.889Z,97.41
2023-01-28T15:02:26.792Z,97.33
2023-01-28T15:04:54.786Z,97.60
2023-01-28T15:07:28.267Z,97.50
2023-01-28T15:10:31.733Z,97.17
2023-01-28T15:13:05.234Z,97.43
2023-01-28T15:15:39.881Z,97.58
2023-01-28T15:18:23.329Z,97.21
2023-01-28T15:20:55.664Z,97.52
2023-01-28T15:23:29.591Z,97.77
2023-01-28T15:25:57.193Z,97.82
2023-01-28T15:28:31.987Z,97.82
2023-01-28T15:30:59.966Z,97.88
2023-01-28T15:33:27.413Z,98.01
2023-01-28T15:35:57.280Z,98.15
2023-01-28T15:38:28.167Z,98.07
2023-01-28T15:41:03.069Z,98.40
2023-01-28T15:43:36.412Z,98.33
2023-01-28T15:46:04.077Z,98.44
2023-01-28T15:48:34.441Z,98.51
2023-01-28T15:51:19.045Z,98.81
2023-01-28T15:53:50.291Z,98.46
2023-01-28T15:56:27.956Z,98.38
2023-01-28T15:58:56.305Z,98.78
2023-01-28T16:01:24.180Z,98.62
2023-01-28T16:04:07.123Z,99.08
2023-01-28T16:06:39.556Z,98.88
2023-01-28T16:09:26.000Z,99.52
2023-01-28T16:11:53.361Z,99.04
2023-01-28T16:14:29.911Z,99.21
2023-01-28T16:16:57.845Z,98.93
2023-01-28T16:20:01.134Z,99.22
2023-01-28T16:22:43.671Z,99.33
2023-01-28T16:25:31.672Z,99.21
2023-01-28T16:28:00.358Z,99.43
2023-01-28T16:30:28.041Z,99.31
2023-01-28T16:32:58.565Z,99.52
2023-01-28T16:35:42.546Z,99.46
2023-01-28T16:38:18.821Z,99.85
2023-01-28T16:40:47.300Z,99.80
2023-01-28T16:43:15.980Z,100.00
2023-01-28T16:45:43.400Z,100.00
2023-01-28T16:48:10.211Z,100.00
2023-01-28T16:50:40.614Z,99.97
2023-01-28T16:53:19.981Z,99.91
2023-01-28T16:55:50.821Z,99.85
2023-01-28T16:58:23.765Z,99.92
2023-01-28T17:00:50.663Z,100.00
2023-01-28T17:03:17.498Z,100.00
2023-01-28T17:05:44.596Z,99.83
2023-01-28T17:08:11.461Z,100.00
2023-01-28T17:10:38.290Z,100.00
2023-01-28T17:13:05.183Z,100.00
2023-01-28T17:15:32.051Z,100.00
2023-01-28T17:17:58.981Z,100.00
2023-01-28T17:20:26.235Z,100.00
2023-01-28T17:22:52.997Z,100.00
2023-01-28T17:25:20.579Z,100.00
2023-01-28T17:27:50.352Z,100.00
2023-01-28T17:30:20.596Z,100.00
2023-01-28T17:32:47.473Z,100.00
2023-01-28T17:35:15.863Z,100.00
2023-01-28T17:37:43.171Z,100.00
2023-01-28T17:40:12.895Z,100.00
2023-01-28T17:42:39.992Z,100.00
2023-01-28T17:45:07.305Z,100.00
2023-01-28T17:47:34.101Z,100.00
2023-01-28T17:50:00.924Z,100.00
2023-01-28T17:52:27.699Z,100.00
2023-01-28T17:54:54.505Z,100.00
2023-01-28T17:57:21.466Z,100.00
2023-01-28T17:59:48.285Z,100.00
2023-01-28T18:02:15.479Z,100.00
2023-01-28T18:04:43.647Z,100.00
2023-01-28T18:07:11.323Z,100.00
2023-01-28T18:09:43.737Z,100.00
2023-01-28T18:12:14.620Z,100.00
2023-01-28T18:14:42.313Z,100.00
2023-01-28T18:17:09.265Z,100.00
2023-01-28T18:19:36.394Z,100.00
2023-01-28T18:22:03.229Z,100.00
2023-01-28T18:24:30.918Z,100.00
2023-01-28T18:27:00.152Z,100.00
2023-01-28T18:29:29.585Z,100.00
2023-01-28T18:31:58.153Z,100.00
2023-01-28T18:34:28.253Z,100.00
2023-01-28T18:36:57.332Z,100.00
2023-01-28T18:39:26.475Z,100.00
2023-01-28T18:41:57.063Z,100.00
2023-01-28T18:44:25.671Z,100.00
2023-01-28T18:46:54.224Z,100.00
2023-01-28T18:49:21.335Z,100.00
2023-01-28T18:51:48.251Z,100.00
2023-01-28T18:54:16.135Z,100.00
2023-01-28T18:56:44.559Z,100.00
2023-01-28T18:59:14.140Z,100.00
2023-01-28T19:01:48.148Z,100.00
2023-01-28T19:04:15.893Z,100.00
2023-01-28T19:06:43.289Z,100.00
2023-01-28T19:09:13.093Z,100.00
2023-01-28T19:11:41.675Z,100.00
2023-01-28T19:14:14.387Z,100.00
2023-01-28T19:16:41.501Z,100.00
2023-01-28T19:19:08.599Z,100.00
2023-01-28T19:21:35.880Z,100.00
2023-01-28T19:24:09.895Z,100.00
2023-01-28T19:26:38.163Z,100.00
2023-01-28T19:29:10.439Z,100.00
2023-01-28T19:31:38.550Z,100.00
2023-01-28T19:34:06.272Z,100.00
2023-01-28T19:36:34.416Z,100.00
2023-01-28T19:39:08.240Z,100.00
2023-01-28T19:41:36.984Z,100.00
2023-01-28T19:44:05.195Z,100.00
2023-01-28T19:46:33.716Z,100.00
2023-01-28T19:49:00.597Z,100.00
2023-01-28T19:51:27.876Z,100.00
2023-01-28T19:53:55.586Z,99.84
2023-01-28T19:56:25.490Z,99.96
2023-01-28T19:58:54.418Z,100.00
2023-01-28T20:01:29.889Z,99.75
2023-01-28T20:04:00.380Z,99.72
2023-01-28T20:06:30.195Z,99.36
2023-01-28T20:09:07.851Z,99.02
2023-01-28T20:11:36.027Z,99.02
2023-01-28T20:14:02.878Z,99.19
2023-01-28T20:16:33.263Z,98.99
2023-01-28T20:19:04.040Z,99.56
2023-01-28T20:21:32.039Z,99.69
2023-01-28T20:24:01.516Z,99.53
2023-01-28T20:26:32.058Z,99.79
2023-01-28T20:29:13.631Z,99.45
2023-01-28T20:31:42.509Z,99.72
2023-01-28T20:34:16.263Z,99.62
2023-01-28T20:36:43.825Z,99.64
2023-01-28T20:39:10.967Z,99.46
2023-01-28T20:41:38.092Z,99.58
2023-01-28T20:44:05.168Z,99.48
2023-01-28T20:46:33.570Z,99.30
2023-01-28T20:49:03.177Z,99.45
2023-01-28T20:51:34.566Z,99.71
2023-01-28T20:54:02.535Z,99.78
2023-01-28T20:56:33.196Z,99.53
2023-01-28T20:59:06.001Z,99.45
2023-01-28T21:01:36.148Z,99.63
2023-01-28T21:04:07.283Z,99.11
2023-01-28T21:06:37.823Z,99.33
2023-01-28T21:09:05.890Z,99.45
2023-01-28T21:11:32.845Z,99.32
2023-01-28T21:13:59.644Z,98.77
2023-01-28T21:16:27.260Z,98.61
2023-01-28T21:18:54.186Z,99.13
2023-01-28T21:21:29.508Z,99.08
2023-01-28T21:24:00.432Z,99.17
2023-01-28T21:26:28.295Z,98.94
2023-01-28T21:28:56.444Z,99.14
2023-01-28T21:31:25.656Z,99.22
2023-01-28T21:33:55.355Z,99.17
2023-01-28T21:36:22.968Z,99.20
2023-01-28T21:38:58.637Z,99.15
2023-01-28T21:41:25.802Z,98.96
2023-01-28T21:43:54.351Z,99.11
2023-01-28T21:46:22.510Z,99.08
2023-01-28T21:48:49.752Z,99.09
2023-01-28T21:51:34.977Z,98.95
2023-01-28T21:54:03.665Z,98.91
2023-01-28T21:56:30.452Z,99.00
2023-01-28T21:59:16.327Z,99.01
2023-01-28T22:01:45.044Z,99.00
2023-01-28T22:04:12.970Z,98.85
2023-01-28T22:06:42.293Z,98.77
2023-01-28T22:09:14.127Z,98.56
2023-01-28T22:11:43.542Z,98.84
2023-01-28T22:14:10.954Z,98.56
2023-01-28T22:16:38.052Z,98.40
2023-01-28T22:19:05.741Z,98.42
2023-01-28T22:21:33.031Z,98.58
2023-01-28T22:23:59.868Z,98.47
2023-01-28T22:26:26.834Z,98.95
2023-01-28T22:28:53.628Z,99.18
2023-01-28T22:31:20.653Z,99.03
2023-01-28T22:33:47.599Z,98.95
2023-01-28T22:36:16.691Z,98.92
2023-01-28T22:38:45.732Z,99.00
2023-01-28T22:41:19.849Z,99.05
2023-01-28T22:43:47.332Z,99.17
2023-01-28T22:46:15.088Z,99.03
2023-01-28T22:48:42.127Z,99.10
2023-01-28T22:51:17.321Z,99.23
2023-01-28T22:53:45.031Z,99.31
2023-01-28T22:56:12.339Z,99.12
2023-01-28T22:58:39.386Z,99.00
2023-01-28T23:01:07.249Z,98.93
2023-01-28T23:03:35.217Z,98.84
2023-01-28T23:06:04.697Z,99.04
2023-01-28T23:08:32.731Z,98.95
2023-01-28T23:11:02.563Z,98.98
2023-01-28T23:13:53.577Z,99.03
2023-01-28T23:16:38.912Z,99.23
2023-01-28T23:19:24.181Z,99.27
2023-01-28T23:22:09.534Z,98.75
2023-01-28T23:24:36.363Z,98.99
2023-01-28T23:27:04.079Z,98.80
2023-01-28T23:29:32.110Z,98.68
2023-01-28T23:32:09.991Z,98.79
2023-01-28T23:34:40.785Z,98.60
2023-01-28T23:37:10.665Z,98.56
2023-01-28T23:39:37.446Z,98.52
2023-01-28T23:42:18.859Z,98.48
2023-01-28T23:44:45.749Z,98.53
2023-01-28T23:47:12.851Z,98.45
2023-01-28T23:49:40.622Z,98.65
2023-01-28T23:52:08.355Z,98.61
2023-01-28T23:54:35.972Z,98.57
2023-01-28T23:57:04.153Z,98.49
2023-01-28T23:59:31.053Z,98.65
